sensor_id;sensor_type;location;lat;lon;timestamp;pressure;altitude;pressure_sealevel;temperature;humidity
68994;BME280;56054;50.968;5.816;2023-07-28T00:01:33;99777.22;;;18.42;100.00
68994;BME280;56054;50.968;5.816;2023-07-28T00:04:43;99785.00;;;18.35;100.00
68994;BME280;56054;50.968;5.816;2023-07-28T00:07:56;99776.31;;;18.39;100.00
68994;BME280;56054;50.968;5.816;2023-07-28T00:11:13;99782.50;;;18.43;100.00
68994;BME280;56054;50.968;5.816;2023-07-28T00:14:25;99779.09;;;18.50;100.00
68994;BME280;56054;50.968;5.816;2023-07-28T00:17:36;99779.09;;;18.49;100.00
68994;BME280;56054;50.968;5.816;2023-07-28T00:20:45;99783.34;;;18.40;100.00
68994;BME280;56054;50.968;5.816;2023-07-28T00:24:06;99778.09;;;18.42;100.00
68994;BME280;56054;50.968;5.816;2023-07-28T00:27:20;99783.66;;;18.62;100.00
68994;BME280;56054;50.968;5.816;2023-07-28T00:30:32;99771.41;;;18.61;100.00
68994;BME280;56054;50.968;5.816;2023-07-28T00:33:44;99773.84;;;18.50;100.00
68994;BME280;56054;50.968;5.816;2023-07-28T00:37:04;99775.59;;;18.50;100.00
68994;BME280;56054;50.968;5.816;2023-07-28T00:40:13;99768.63;;;18.52;100.00
68994;BME280;56054;50.968;5.816;2023-07-28T00:43:35;99771.28;;;18.53;100.00
68994;BME280;56054;50.968;5.816;2023-07-28T00:47:05;99767.84;;;18.59;100.00
68994;BME280;56054;50.968;5.816;2023-07-28T00:50:17;99764.66;;;18.78;100.00
68994;BME280;56054;50.968;5.816;2023-07-28T00:53:45;99763.53;;;18.64;100.00
68994;BME280;56054;50.968;5.816;2023-07-28T00:56:52;99767.88;;;18.62;100.00
68994;BME280;56054;50.968;5.816;2023-07-28T01:00:00;99762.69;;;18.67;100.00
68994;BME280;56054;50.968;5.816;2023-07-28T01:03:07;99773.25;;;18.68;100.00
68994;BME280;56054;50.968;5.816;2023-07-28T01:06:23;99764.44;;;18.66;100.00
68994;BME280;56054;50.968;5.816;2023-07-28T01:09:40;99759.19;;;18.66;100.00
68994;BME280;56054;50.968;5.816;2023-07-28T01:12:48;99768.00;;;18.68;100.00
68994;BME280;56054;50.968;5.816;2023-07-28T01:15:55;99765.38;;;18.70;100.00
68994;BME280;56054;50.968;5.816;2023-07-28T01:19:02;99774.88;;;18.60;100.00
68994;BME280;56054;50.968;5.816;2023-07-28T01:28:49;99769.81;;;18.74;100.00
68994;BME280;56054;50.968;5.816;2023-07-28T01:31:59;99774.69;;;18.48;100.00
68994;BME280;56054;50.968;5.816;2023-07-28T01:35:07;99772.16;;;18.54;100.00
68994;BME280;56054;50.968;5.816;2023-07-28T01:38:14;99765.22;;;18.60;100.00
68994;BME280;56054;50.968;5.816;2023-07-28T01:41:21;99770.50;;;18.60;100.00
68994;BME280;56054;50.968;5.816;2023-07-28T01:44:28;99773.00;;;18.53;100.00
68994;BME280;56054;50.968;5.816;2023-07-28T01:47:35;99773.13;;;18.60;100.00
68994;BME280;56054;50.968;5.816;2023-07-28T01:50:42;99767.84;;;18.59;100.00
68994;BME280;56054;50.968;5.816;2023-07-28T01:54:08;99763.44;;;18.56;100.00
68994;BME280;56054;50.968;5.816;2023-07-28T01:57:15;99767.81;;;18.56;100.00
68994;BME280;56054;50.968;5.816;2023-07-28T02:00:23;99766.91;;;18.55;100.00
68994;BME280;56054;50.968;5.816;2023-07-28T02:03:29;99769.69;;;18.63;100.00
68994;BME280;56054;50.968;5.816;2023-07-28T02:06:36;99780.09;;;18.57;100.00
68994;BME280;56054;50.968;5.816;2023-07-28T02:09:43;99765.88;;;18.46;100.00
68994;BME280;56054;50.968;5.816;2023-07-28T02:12:50;99768.53;;;18.47;100.00
68994;BME280;56054;50.968;5.816;2023-07-28T02:15:57;99760.94;;;18.67;100.00
68994;BME280;56054;50.968;5.816;2023-07-28T02:19:04;99770.63;;;18.68;100.00
68994;BME280;56054;50.968;5.816;2023-07-28T02:22:11;99772.25;;;18.58;100.00
68994;BME280;56054;50.968;5.816;2023-07-28T02:25:18;99776.66;;;18.63;100.00
68994;BME280;56054;50.968;5.816;2023-07-28T02:28:25;99763.44;;;18.56;100.00
68994;BME280;56054;50.968;5.816;2023-07-28T02:31:32;99772.13;;;18.51;100.00
68994;BME280;56054;50.968;5.816;2023-07-28T02:34:39;99769.50;;;18.51;100.00
68994;BME280;56054;50.968;5.816;2023-07-28T02:37:46;99767.94;;;18.65;100.00
68994;BME280;56054;50.968;5.816;2023-07-28T02:40:53;99757.22;;;18.53;100.00
68994;BME280;56054;50.968;5.816;2023-07-28T02:44:00;99765.22;;;18.60;100.00
68994;BME280;56054;50.968;5.816;2023-07-28T02:47:07;99770.47;;;18.59;100.00
68994;BME280;56054;50.968;5.816;2023-07-28T02:50:14;99772.25;;;18.58;100.00
68994;BME280;56054;50.968;5.816;2023-07-28T02:53:21;99781.03;;;18.62;100.00
68994;BME280;56054;50.968;5.816;2023-07-28T02:56:28;99771.25;;;18.52;100.00
68994;BME280;56054;50.968;5.816;2023-07-28T02:59:35;99781.91;;;18.63;100.00
68994;BME280;56054;50.968;5.816;2023-07-28T03:02:42;99775.81;;;18.64;100.00
68994;BME280;56054;50.968;5.816;2023-07-28T03:05:51;99784.47;;;18.56;100.00
68994;BME280;56054;50.968;5.816;2023-07-28T03:09:01;99788.09;;;18.63;100.00
68994;BME280;56054;50.968;5.816;2023-07-28T03:12:22;99789.00;;;18.67;100.00
68994;BME280;56054;50.968;5.816;2023-07-28T03:15:28;99794.13;;;18.57;100.00
68994;BME280;56054;50.968;5.816;2023-07-28T03:18:35;99789.66;;;18.52;100.00
68994;BME280;56054;50.968;5.816;2023-07-28T03:21:42;99794.03;;;18.51;100.00
68994;BME280;56054;50.968;5.816;2023-07-28T03:24:50;99791.31;;;18.45;100.00
68994;BME280;56054;50.968;5.816;2023-07-28T03:27:57;99793.06;;;18.45;100.00
68994;BME280;56054;50.968;5.816;2023-07-28T03:31:04;99801.09;;;18.55;100.00
68994;BME280;56054;50.968;5.816;2023-07-28T03:34:11;99801.94;;;18.53;100.00
68994;BME280;56054;50.968;5.816;2023-07-28T03:37:18;99802.84;;;18.55;100.00
68994;BME280;56054;50.968;5.816;2023-07-28T03:40:25;99806.47;;;18.61;100.00
68994;BME280;56054;50.968;5.816;2023-07-28T03:43:32;99798.44;;;18.51;100.00
68994;BME280;56054;50.968;5.816;2023-07-28T03:46:39;99801.94;;;18.51;100.00
68994;BME280;56054;50.968;5.816;2023-07-28T03:49:54;99819.47;;;18.52;100.00
68994;BME280;56054;50.968;5.816;2023-07-28T03:53:01;99810.75;;;18.53;100.00
68994;BME280;56054;50.968;5.816;2023-07-28T03:56:08;99813.59;;;18.69;100.00
68994;BME280;56054;50.968;5.816;2023-07-28T03:59:15;99823.84;;;18.52;100.00
68994;BME280;56054;50.968;5.816;2023-07-28T04:02:22;99815.00;;;18.47;100.00
68994;BME280;56054;50.968;5.816;2023-07-28T04:05:29;99812.56;;;18.60;100.00
68994;BME280;56054;50.968;5.816;2023-07-28T04:08:36;99807.19;;;18.53;100.00
68994;BME280;56054;50.968;5.816;2023-07-28T04:11:43;99799.22;;;18.47;100.00
68994;BME280;56054;50.968;5.816;2023-07-28T04:14:50;99799.31;;;18.51;100.00
68994;BME280;56054;50.968;5.816;2023-07-28T04:17:57;99811.63;;;18.54;100.00
68994;BME280;56054;50.968;5.816;2023-07-28T04:21:04;99812.63;;;18.62;100.00
68994;BME280;56054;50.968;5.816;2023-07-28T04:24:11;99804.56;;;18.51;100.00
68994;BME280;56054;50.968;5.816;2023-07-28T04:27:21;99818.56;;;18.49;100.00
68994;BME280;56054;50.968;5.816;2023-07-28T04:30:33;99810.81;;;18.59;100.00
68994;BME280;56054;50.968;5.816;2023-07-28T04:33:41;99813.44;;;18.59;100.00
68994;BME280;56054;50.968;5.816;2023-07-28T04:36:48;99816.16;;;18.64;100.00
68994;BME280;56054;50.968;5.816;2023-07-28T04:39:58;99815.34;;;18.68;100.00
68994;BME280;56054;50.968;5.816;2023-07-28T04:43:10;99825.63;;;18.53;100.00
68994;BME280;56054;50.968;5.816;2023-07-28T04:46:24;99826.59;;;18.59;100.00
68994;BME280;56054;50.968;5.816;2023-07-28T04:49:31;99824.00;;;18.61;100.00
68994;BME280;56054;50.968;5.816;2023-07-28T04:52:41;99827.28;;;18.48;100.00
68994;BME280;56054;50.968;5.816;2023-07-28T04:56:07;99827.50;;;18.60;100.00
68994;BME280;56054;50.968;5.816;2023-07-28T04:59:13;99842.34;;;18.56;100.00
68994;BME280;56054;50.968;5.816;2023-07-28T05:02:20;99834.41;;;18.55;100.00
68994;BME280;56054;50.968;5.816;2023-07-28T05:05:29;99844.16;;;18.59;100.00
68994;BME280;56054;50.968;5.816;2023-07-28T05:08:39;99854.69;;;18.60;100.00
68994;BME280;56054;50.968;5.816;2023-07-28T05:11:50;99846.81;;;18.62;100.00
68994;BME280;56054;50.968;5.816;2023-07-28T05:14:58;99848.56;;;18.61;100.00
68994;BME280;56054;50.968;5.816;2023-07-28T05:18:06;99857.25;;;18.56;100.00
68994;BME280;56054;50.968;5.816;2023-07-28T05:21:30;99857.31;;;18.59;100.00
68994;BME280;56054;50.968;5.816;2023-07-28T05:24:37;99857.34;;;18.62;100.00
68994;BME280;56054;50.968;5.816;2023-07-28T05:27:44;99861.75;;;18.65;100.00
68994;BME280;56054;50.968;5.816;2023-07-28T05:30:51;99857.34;;;18.62;100.00
68994;BME280;56054;50.968;5.816;2023-07-28T05:33:58;99859.34;;;18.75;100.00
68994;BME280;56054;50.968;5.816;2023-07-28T05:37:05;99867.22;;;18.75;100.00
68994;BME280;56054;50.968;5.816;2023-07-28T05:40:12;99875.13;;;18.75;100.00
68994;BME280;56054;50.968;5.816;2023-07-28T05:43:19;99879.69;;;18.87;100.00
68994;BME280;56054;50.968;5.816;2023-07-28T05:46:29;99870.09;;;18.88;100.00
68994;BME280;56054;50.968;5.816;2023-07-28T05:49:36;99880.72;;;18.97;100.00
68994;BME280;56054;50.968;5.816;2023-07-28T05:52:43;99868.47;;;18.97;100.00
68994;BME280;56054;50.968;5.816;2023-07-28T05:55:49;99886.69;;;18.84;100.00
68994;BME280;56054;50.968;5.816;2023-07-28T05:58:57;99881.44;;;18.87;100.00
68994;BME280;56054;50.968;5.816;2023-07-28T06:02:03;99888.50;;;18.89;100.00
68994;BME280;56054;50.968;5.816;2023-07-28T06:05:21;99883.13;;;18.81;100.00
68994;BME280;56054;50.968;5.816;2023-07-28T06:08:30;99889.28;;;18.82;100.00
68994;BME280;56054;50.968;5.816;2023-07-28T06:11:37;99898.25;;;18.93;100.00
68994;BME280;56054;50.968;5.816;2023-07-28T06:14:45;99899.16;;;18.97;100.00
68994;BME280;56054;50.968;5.816;2023-07-28T06:17:52;99898.41;;;19.04;100.00
68994;BME280;56054;50.968;5.816;2023-07-28T06:20:58;99899.16;;;18.97;100.00
68994;BME280;56054;50.968;5.816;2023-07-28T06:24:06;99891.53;;;19.12;100.00
68994;BME280;56054;50.968;5.816;2023-07-28T06:27:13;99901.25;;;19.18;100.00
68994;BME280;56054;50.968;5.816;2023-07-28T06:30:20;99894.19;;;19.15;100.00
68994;BME280;56054;50.968;5.816;2023-07-28T06:33:28;99901.50;;;19.35;100.00
68994;BME280;56054;50.968;5.816;2023-07-28T06:36:35;99905.78;;;19.27;100.00
68994;BME280;56054;50.968;5.816;2023-07-28T06:39:42;99902.97;;;19.14;100.00
68994;BME280;56054;50.968;5.816;2023-07-28T06:42:49;99903.16;;;19.28;100.00
68994;BME280;56054;50.968;5.816;2023-07-28T06:45:56;99912.81;;;19.28;100.00
68994;BME280;56054;50.968;5.816;2023-07-28T06:49:04;99917.34;;;19.38;100.00
68994;BME280;56054;50.968;5.816;2023-07-28T06:52:10;99919.81;;;19.29;100.00
68994;BME280;56054;50.968;5.816;2023-07-28T06:55:18;99923.31;;;19.24;100.00
68994;BME280;56054;50.968;5.816;2023-07-28T06:58:27;99926.97;;;19.36;100.00
68994;BME280;56054;50.968;5.816;2023-07-28T07:01:33;99927.72;;;19.29;100.00
68994;BME280;56054;50.968;5.816;2023-07-28T07:04:41;99926.25;;;19.46;100.00
68994;BME280;56054;50.968;5.816;2023-07-28T07:07:47;99929.75;;;19.46;100.00
68994;BME280;56054;50.968;5.816;2023-07-28T07:10:54;99934.16;;;19.46;100.00
68994;BME280;56054;50.968;5.816;2023-07-28T07:14:01;99936.84;;;19.52;100.00
68994;BME280;56054;50.968;5.816;2023-07-28T07:17:08;99936.03;;;19.53;100.00
68994;BME280;56054;50.968;5.816;2023-07-28T07:20:15;99947.47;;;19.57;100.00
68994;BME280;56054;50.968;5.816;2023-07-28T07:23:23;99939.66;;;19.64;100.00
68994;BME280;56054;50.968;5.816;2023-07-28T07:26:29;99946.91;;;19.78;100.00
68994;BME280;56054;50.968;5.816;2023-07-28T07:29:40;99951.28;;;19.77;100.00
68994;BME280;56054;50.968;5.816;2023-07-28T07:32:47;99946.06;;;19.80;100.00
68994;BME280;56054;50.968;5.816;2023-07-28T07:35:55;99938.94;;;19.75;100.00
68994;BME280;56054;50.968;5.816;2023-07-28T07:39:02;99948.03;;;19.95;100.00
68994;BME280;56054;50.968;5.816;2023-07-28T07:42:10;99949.88;;;20.02;100.00
68994;BME280;56054;50.968;5.816;2023-07-28T07:45:16;99955.22;;;20.12;100.00
68994;BME280;56054;50.968;5.816;2023-07-28T07:48:23;99955.81;;;19.86;100.00
68994;BME280;56054;50.968;5.816;2023-07-28T07:51:30;99945.44;;;20.01;100.00
68994;BME280;56054;50.968;5.816;2023-07-28T07:54:37;99954.56;;;20.31;100.00
68994;BME280;56054;50.968;5.816;2023-07-28T07:57:45;99957.28;;;20.37;100.00
68994;BME280;56054;50.968;5.816;2023-07-28T08:00:52;99955.34;;;20.21;100.00
68994;BME280;56054;50.968;5.816;2023-07-28T08:03:59;99953.84;;;20.41;100.00
68994;BME280;56054;50.968;5.816;2023-07-28T08:07:06;99945.84;;;20.38;100.00
68994;BME280;56054;50.968;5.816;2023-07-28T08:10:13;99951.31;;;20.53;100.00
68994;BME280;56054;50.968;5.816;2023-07-28T08:13:20;99945.84;;;20.38;100.00
68994;BME280;56054;50.968;5.816;2023-07-28T08:16:27;99954.91;;;20.59;100.00
68994;BME280;56054;50.968;5.816;2023-07-28T08:19:34;99963.50;;;20.42;100.00
68994;BME280;56054;50.968;5.816;2023-07-28T08:22:41;99963.59;;;20.51;100.00
68994;BME280;56054;50.968;5.816;2023-07-28T08:25:48;99962.03;;;20.66;100.00
68994;BME280;56054;50.968;5.816;2023-07-28T08:28:55;99965.41;;;20.56;100.00
68994;BME280;56054;50.968;5.816;2023-07-28T08:32:03;99967.25;;;20.63;100.00
68994;BME280;56054;50.968;5.816;2023-07-28T08:35:10;99964.78;;;20.80;100.00
68994;BME280;56054;50.968;5.816;2023-07-28T08:38:17;99970.13;;;20.86;100.00
68994;BME280;56054;50.968;5.816;2023-07-28T08:41:24;99975.38;;;20.81;100.00
68994;BME280;56054;50.968;5.816;2023-07-28T08:44:33;99986.69;;;20.69;100.00
68994;BME280;56054;50.968;5.816;2023-07-28T08:47:39;99980.56;;;20.70;100.00
68994;BME280;56054;50.968;5.816;2023-07-28T08:50:48;99982.50;;;20.90;100.00
68994;BME280;56054;50.968;5.816;2023-07-28T08:53:54;99987.09;;;21.14;100.00
68994;BME280;56054;50.968;5.816;2023-07-28T08:57:04;99982.88;;;21.37;100.00
68994;BME280;56054;50.968;5.816;2023-07-28T09:00:15;99970.66;;;21.47;100.00
68994;BME280;56054;50.968;5.816;2023-07-28T09:03:21;99980.88;;;21.09;100.00
68994;BME280;56054;50.968;5.816;2023-07-28T09:06:29;99983.41;;;20.93;100.00
68994;BME280;56054;50.968;5.816;2023-07-28T09:09:35;99991.31;;;20.90;100.00
68994;BME280;56054;50.968;5.816;2023-07-28T09:12:48;99989.28;;;20.63;100.00
68994;BME280;56054;50.968;5.816;2023-07-28T09:15:54;99986.84;;;20.86;100.00
68994;BME280;56054;50.968;5.816;2023-07-28T09:19:05;99996.66;;;21.01;100.00
68994;BME280;56054;50.968;5.816;2023-07-28T09:22:13;99995.78;;;20.98;100.00
68994;BME280;56054;50.968;5.816;2023-07-28T09:25:19;99983.41;;;20.93;100.00
68994;BME280;56054;50.968;5.816;2023-07-28T09:28:39;99997.59;;;21.05;100.00
68994;BME280;56054;50.968;5.816;2023-07-28T09:31:48;99999.31;;;21.00;100.00
68994;BME280;56054;50.968;5.816;2023-07-28T09:35:09;99990.69;;;21.22;100.00
68994;BME280;56054;50.968;5.816;2023-07-28T09:38:18;99984.53;;;21.26;100.00
68994;BME280;56054;50.968;5.816;2023-07-28T09:41:25;99988.97;;;21.24;100.00
68994;BME280;56054;50.968;5.816;2023-07-28T09:44:32;99985.50;;;21.37;100.00
68994;BME280;56054;50.968;5.816;2023-07-28T09:47:48;99990.00;;;21.42;100.00
68994;BME280;56054;50.968;5.816;2023-07-28T09:50:58;99991.09;;;21.77;100.00
68994;BME280;56054;50.968;5.816;2023-07-28T09:54:12;99989.44;;;21.99;100.00
68994;BME280;56054;50.968;5.816;2023-07-28T09:57:20;99991.19;;;21.99;100.00
68994;BME280;56054;50.968;5.816;2023-07-28T10:00:27;99988.59;;;22.07;100.00
68994;BME280;56054;50.968;5.816;2023-07-28T10:03:35;99984.16;;;21.95;100.00
68994;BME280;56054;50.968;5.816;2023-07-28T10:06:43;100000.72;;;21.63;100.00
68994;BME280;56054;50.968;5.816;2023-07-28T10:09:50;99989.94;;;21.38;100.00
68994;BME280;56054;50.968;5.816;2023-07-28T10:12:57;99996.97;;;21.36;100.00
68994;BME280;56054;50.968;5.816;2023-07-28T10:16:04;100000.53;;;21.38;100.00
68994;BME280;56054;50.968;5.816;2023-07-28T10:19:11;100002.34;;;21.44;100.00
68994;BME280;56054;50.968;5.816;2023-07-28T10:22:18;100002.19;;;21.27;100.00
68994;BME280;56054;50.968;5.816;2023-07-28T10:25:25;99997.94;;;21.45;100.00
68994;BME280;56054;50.968;5.816;2023-07-28T10:28:37;99999.56;;;21.30;100.00
68994;BME280;56054;50.968;5.816;2023-07-28T10:31:52;100006.59;;;21.30;100.00
68994;BME280;56054;50.968;5.816;2023-07-28T10:35:22;100006.63;;;21.36;100.00
68994;BME280;56054;50.968;5.816;2023-07-28T10:38:34;100005.81;;;21.38;100.00
68994;BME280;56054;50.968;5.816;2023-07-28T10:42:04;100007.63;;;21.46;100.00
68994;BME280;56054;50.968;5.816;2023-07-28T10:45:10;100006.09;;;21.75;100.00
68994;BME280;56054;50.968;5.816;2023-07-28T10:48:17;100000.81;;;21.85;100.00
68994;BME280;56054;50.968;5.816;2023-07-28T10:51:26;100006.00;;;21.68;100.00
68994;BME280;56054;50.968;5.816;2023-07-28T10:54:34;100001.63;;;21.68;100.00
68994;BME280;56054;50.968;5.816;2023-07-28T10:57:43;100009.63;;;21.79;100.00
68994;BME280;56054;50.968;5.816;2023-07-28T11:00:50;100003.56;;;22.01;100.00
68994;BME280;56054;50.968;5.816;2023-07-28T11:07:14;100013.31;;;22.16;100.00
68994;BME280;56054;50.968;5.816;2023-07-28T11:10:22;100015.19;;;22.33;100.00
68994;BME280;56054;50.968;5.816;2023-07-28T11:13:28;100009.09;;;22.49;100.00
68994;BME280;56054;50.968;5.816;2023-07-28T11:16:41;100008.16;;;22.32;100.00
68994;BME280;56054;50.968;5.816;2023-07-28T11:19:49;100003.75;;;22.37;100.00
68994;BME280;56054;50.968;5.816;2023-07-28T11:23:01;100008.09;;;22.22;100.00
68994;BME280;56054;50.968;5.816;2023-07-28T11:26:08;100024.78;;;22.12;100.00
68994;BME280;56054;50.968;5.816;2023-07-28T11:29:16;100029.97;;;21.97;100.00
68994;BME280;56054;50.968;5.816;2023-07-28T11:32:23;100029.91;;;21.85;100.00
68994;BME280;56054;50.968;5.816;2023-07-28T11:35:30;100024.63;;;21.85;100.00
68994;BME280;56054;50.968;5.816;2023-07-28T11:38:39;100030.69;;;21.64;100.00
68994;BME280;56054;50.968;5.816;2023-07-28T11:41:45;100025.50;;;21.84;100.00
68994;BME280;56054;50.968;5.816;2023-07-28T11:44:53;100021.09;;;21.78;100.00
68994;BME280;56054;50.968;5.816;2023-07-28T11:48:01;100019.19;;;21.58;100.00
68994;BME280;56054;50.968;5.816;2023-07-28T11:51:12;100028.84;;;21.55;100.00
68994;BME280;56054;50.968;5.816;2023-07-28T11:54:24;100028.84;;;21.58;100.00
68994;BME280;56054;50.968;5.816;2023-07-28T11:57:32;100020.03;;;21.54;100.00
68994;BME280;56054;50.968;5.816;2023-07-28T12:00:39;100024.50;;;21.62;100.00
68994;BME280;56054;50.968;5.816;2023-07-28T12:03:47;100012.81;;;21.35;100.00
68994;BME280;56054;50.968;5.816;2023-07-28T12:07:27;100016.38;;;21.38;100.00
68994;BME280;56054;50.968;5.816;2023-07-28T12:10:35;100023.63;;;21.64;100.00
68994;BME280;56054;50.968;5.816;2023-07-28T12:13:49;100017.22;;;21.34;100.00
68994;BME280;56054;50.968;5.816;2023-07-28T12:16:56;100019.94;;;21.42;100.00
68994;BME280;56054;50.968;5.816;2023-07-28T12:20:08;100017.38;;;21.53;100.00
68994;BME280;56054;50.968;5.816;2023-07-28T12:23:19;100023.63;;;21.61;100.00
68994;BME280;56054;50.968;5.816;2023-07-28T12:26:26;100033.47;;;21.88;100.00
68994;BME280;56054;50.968;5.816;2023-07-28T12:29:32;100030.59;;;21.54;100.00
68994;BME280;56054;50.968;5.816;2023-07-28T12:32:39;100035.06;;;21.58;100.00
68994;BME280;56054;50.968;5.816;2023-07-28T12:35:46;100043.56;;;21.25;100.00
68994;BME280;56054;50.968;5.816;2023-07-28T12:38:53;100031.47;;;21.49;100.00
68994;BME280;56054;50.968;5.816;2023-07-28T12:42:00;100031.28;;;21.33;100.00
68994;BME280;56054;50.968;5.816;2023-07-28T12:45:08;100028.81;;;21.50;100.00
68994;BME280;56054;50.968;5.816;2023-07-28T12:48:14;100033.38;;;21.71;100.00
68994;BME280;56054;50.968;5.816;2023-07-28T12:51:21;100034.06;;;21.46;100.00
68994;BME280;56054;50.968;5.816;2023-07-28T12:54:28;100028.75;;;21.43;100.00
68994;BME280;56054;50.968;5.816;2023-07-28T12:57:35;100035.19;;;21.85;100.00
68994;BME280;56054;50.968;5.816;2023-07-28T13:00:45;100027.25;;;21.82;100.00
68994;BME280;56054;50.968;5.816;2023-07-28T13:03:52;100033.34;;;21.70;100.00
68994;BME280;56054;50.968;5.816;2023-07-28T13:06:59;100035.09;;;21.68;100.00
68994;BME280;56054;50.968;5.816;2023-07-28T13:10:08;100023.72;;;21.78;100.00
68994;BME280;56054;50.968;5.816;2023-07-28T13:13:15;100026.41;;;21.83;100.00
68994;BME280;56054;50.968;5.816;2023-07-28T13:16:22;100034.25;;;21.75;100.00
68994;BME280;56054;50.968;5.816;2023-07-28T13:19:29;100041.91;;;21.36;100.00
68994;BME280;56054;50.968;5.816;2023-07-28T13:22:36;100048.91;;;21.31;100.00
68994;BME280;56054;50.968;5.816;2023-07-28T13:25:43;100047.91;;;21.17;100.00
68994;BME280;56054;50.968;5.816;2023-07-28T13:28:51;100045.50;;;21.45;100.00
68994;BME280;56054;50.968;5.816;2023-07-28T13:31:59;100048.22;;;21.54;100.00
68994;BME280;56054;50.968;5.816;2023-07-28T13:35:06;100055.78;;;21.14;100.00
68994;BME280;56054;50.968;5.816;2023-07-28T13:38:13;100050.44;;;21.08;100.00
68994;BME280;56054;50.968;5.816;2023-07-28T13:41:19;100054.91;;;21.12;100.00
68994;BME280;56054;50.968;5.816;2023-07-28T13:44:26;100055.56;;;20.91;100.00
68994;BME280;56054;50.968;5.816;2023-07-28T13:47:33;100052.75;;;20.77;100.00
68994;BME280;56054;50.968;5.816;2023-07-28T13:50:40;100053.44;;;20.59;100.00
68994;BME280;56054;50.968;5.816;2023-07-28T13:53:47;100056.25;;;20.73;100.00
68994;BME280;56054;50.968;5.816;2023-07-28T13:56:54;100054.19;;;20.50;100.00
68994;BME280;56054;50.968;5.816;2023-07-28T14:00:03;100051.09;;;20.87;100.00
68994;BME280;56054;50.968;5.816;2023-07-28T14:03:09;100045.78;;;20.81;100.00
68994;BME280;56054;50.968;5.816;2023-07-28T14:06:16;100044.13;;;20.90;100.00
68994;BME280;56054;50.968;5.816;2023-07-28T14:09:24;100037.78;;;20.73;100.00
68994;BME280;56054;50.968;5.816;2023-07-28T14:12:30;100035.31;;;20.90;100.00
68994;BME280;56054;50.968;5.816;2023-07-28T14:15:38;100045.69;;;21.66;100.00
68994;BME280;56054;50.968;5.816;2023-07-28T14:18:45;100036.03;;;21.76;100.00
68994;BME280;56054;50.968;5.816;2023-07-28T14:21:53;100031.84;;;22.13;100.00
68994;BME280;56054;50.968;5.816;2023-07-28T14:24:59;100030.25;;;22.49;100.00
68994;BME280;56054;50.968;5.816;2023-07-28T14:28:07;100022.38;;;22.71;100.00
68994;BME280;56054;50.968;5.816;2023-07-28T14:31:14;100017.03;;;22.55;100.00
68994;BME280;56054;50.968;5.816;2023-07-28T14:34:21;100017.09;;;22.77;100.00
68994;BME280;56054;50.968;5.816;2023-07-28T14:37:28;100018.03;;;23.11;100.00
68994;BME280;56054;50.968;5.816;2023-07-28T14:40:36;100018.03;;;23.36;100.00
68994;BME280;56054;50.968;5.816;2023-07-28T14:43:43;100016.28;;;23.07;100.00
68994;BME280;56054;50.968;5.816;2023-07-28T14:46:50;100026.81;;;22.87;100.00
68994;BME280;56054;50.968;5.816;2023-07-28T14:49:57;100017.16;;;23.14;100.00
68994;BME280;56054;50.968;5.816;2023-07-28T14:53:42;100015.41;;;23.00;100.00
68994;BME280;56054;50.968;5.816;2023-07-28T14:56:49;100033.06;;;23.06;100.00
68994;BME280;56054;50.968;5.816;2023-07-28T14:59:56;100019.78;;;23.50;100.00
68994;BME280;56054;50.968;5.816;2023-07-28T15:03:03;100019.81;;;23.66;100.00
68994;BME280;56054;50.968;5.816;2023-07-28T15:06:10;100027.59;;;24.26;100.00
68994;BME280;56054;50.968;5.816;2023-07-28T15:09:17;100025.78;;;24.51;100.00
68994;BME280;56054;50.968;5.816;2023-07-28T15:12:24;100028.44;;;24.35;100.00
68994;BME280;56054;50.968;5.816;2023-07-28T15:15:31;100020.50;;;24.32;100.00
68994;BME280;56054;50.968;5.816;2023-07-28T15:18:45;100021.34;;;24.47;100.00
68994;BME280;56054;50.968;5.816;2023-07-28T15:21:53;100015.03;;;24.71;100.00
68994;BME280;56054;50.968;5.816;2023-07-28T15:25:00;100020.47;;;24.40;100.00
68994;BME280;56054;50.968;5.816;2023-07-28T15:28:07;100015.28;;;24.12;100.00
68994;BME280;56054;50.968;5.816;2023-07-28T15:31:14;100018.75;;;24.25;100.00
68994;BME280;56054;50.968;5.816;2023-07-28T15:34:21;100027.50;;;24.55;100.00
68994;BME280;56054;50.968;5.816;2023-07-28T15:37:30;100030.78;;;24.97;100.00
68994;BME280;56054;50.968;5.816;2023-07-28T15:40:44;100031.66;;;24.99;100.00
68994;BME280;56054;50.968;5.816;2023-07-28T15:43:52;100022.88;;;24.85;99.71
68994;BME280;56054;50.968;5.816;2023-07-28T15:46:59;100021.94;;;24.96;99.44
68994;BME280;56054;50.968;5.816;2023-07-28T15:50:06;100025.53;;;24.92;98.99
68994;BME280;56054;50.968;5.816;2023-07-28T15:53:14;100022.00;;;24.89;94.20
68994;BME280;56054;50.968;5.816;2023-07-28T15:56:21;100028.13;;;24.98;93.59
68994;BME280;56054;50.968;5.816;2023-07-28T15:59:29;100024.50;;;25.10;92.84
68994;BME280;56054;50.968;5.816;2023-07-28T16:02:37;100011.03;;;25.36;93.36
68994;BME280;56054;50.968;5.816;2023-07-28T16:05:44;100011.03;;;25.36;92.93
68994;BME280;56054;50.968;5.816;2023-07-28T16:08:51;100012.84;;;25.28;89.94
68994;BME280;56054;50.968;5.816;2023-07-28T16:11:58;100007.44;;;25.40;90.37
68994;BME280;56054;50.968;5.816;2023-07-28T16:15:05;100005.78;;;25.26;88.00
68994;BME280;56054;50.968;5.816;2023-07-28T16:18:12;100004.78;;;25.42;89.48
68994;BME280;56054;50.968;5.816;2023-07-28T16:21:19;99997.75;;;25.35;89.46
68994;BME280;56054;50.968;5.816;2023-07-28T16:24:26;99997.84;;;25.16;91.58
68994;BME280;56054;50.968;5.816;2023-07-28T16:27:33;99995.94;;;25.37;92.00
68994;BME280;56054;50.968;5.816;2023-07-28T16:30:40;99989.44;;;25.67;91.30
68994;BME280;56054;50.968;5.816;2023-07-28T16:33:47;99979.66;;;25.71;94.51